-1 Query Result

LUMCON's Bayouside Classroom: Query Results


Try Another Query    Instructions for saving Query Results    View Delimited Text File for this Query   
UserNameUserIDGroupNumberLocationLocationIDSampleDateSampleTimeBottomTempTopTempBottomSalinityTopSalinityBottomDOTopDOBottompHToppHBottomTurbidityTopTurbidityDepth
mvijay 82 AudubonPkLagoon3 43 2/13/2008 1600 NA 15.5 NA NA NA 1.2 NA 7.45 NA 61.5 JTU NA 
mvijay 82 AudubonPkLagoon3 43 2/23/2008 1400 NA 21 NA NA NA 4.8 NA 7.60 NA 24 JTU NA 
mvijay 82 AudubonPkLagoon3 43 2/27/2008 1600 NA 18 NA  NA 3.6 NA 7.17 NA 38 JTU NA 
mvijay 82 AudubonPkLagoon3 43 3/5/2008 1600 NA 20 NA NA NA 5.4 NA 7.56 NA 37 JTU NA 
mvijay 82 AudubonPkLagoon3 43 3/12/2008 1600 NA 21.5 NA NA NA 6.8 NA 7.66 NA 61.5 JTU NA 
mvijay 82 AudubonPkLagoon3 43 3/26/2008 1600 NA 21 NA  NA 4.4 NA 7.56 NA 61.5 JTU NA 
mvijay 82 AudubonPkLagoon3 43 4/3/2008 1600 NA 26 NA NA NA 3.1 NA NA NA 41 JTU NA 
mvijay 82 AudubonPkLagoon3 43 2/3/2010 1638 NA 13 NA NA NA 5.2 NA 6.8  21.9 NA 
mvijay 82 NA AudubonPkLagoon3 43 2/11/2010 1645 NA 11.5 NA NA NA 8.6 NA 6.26  20.4 NA 
mvijay 82 NA AudubonPkLagoon3 43 2/17/2010 16:35 NA 13 NA NA NA 9.8 NA 7.47  25.1 NA 
mvijay 82 NA AudubonPkLagoon3 43 2/24/2010 16:32 NA 10 C NA NA NA 9.2 NA 7.82  13.15 NA 
mvijay 82 AudubonPkLagoon3 43 3/10/2010 4:30 NA 19 NA NA NA 7.7 NA 8.39  49 NA 
mvijay 82 AudubonPkLagoon3 43 3/17/2010 4:30 NA 21 NA NA NA 5.0 NA 7.71  38 NA 
mvijay 82 AudubonPkLagoon3 43 3/24/2010 4:30 NA 20 NA NA NA 7.9 NA 7.77  24.2 NA 
mvijay 82 AudubonPkLagoon3 43 9/19/2011 15:00 NA 29 NA NA NA 6.5 NA 8.9  18.8 NA 
mvijay 82 AudubonPkLagoon3 43 9/20/2011 13.30  35 NA NA NA 3.8 NA NA  12 NA 
mvijay 82 AudubonPkLagoon3 43 9/26/2011 15:00 NA 33 NA NA NA 8.6 NA 8.8  22.3 NA 
mvijay 82 AudubonPkLagoon3 43 9/27/2011 1:30 NA 32 NA NA NA 7.3 NA 8.8  18.9 NA 
mvijay 82 AudubonPkLagoon3 43 10/3/2011 15:00 NA 26 NA NA NA 5.4 NA 8.6  24.7 NA 
mvijay 82 AudubonPkLagoon3 43 10/4/2011 13:32 NA 25 NA NA NA 4.6 NA 8.7  22.25 NA 
mvijay 82 AudubonPkLagoon3 43 10/10/2011 15:00 NA 26 NA NA NA 3.8 NA 8.2  60+ NA 
mvijay 82 AudubonPkLagoon3 43 10/11/2011 13:29 NA 26 NA NA NA 3.8 NA 8.3  31.3 NA 
mvijay 82 AudubonPkLagoon3 43 10/17/2011 15:00 NA 29 NA NA NA 12 NA 8.9  27.4 NA 
mvijay 82 AudubonPkLagoon3 43 10/18/2011 13:32 NA 29 NA NA NA 5.0 NA 8.9  34 NA 
mvijay 82 AudubonPkLagoon3 43 10/21/2011 1500 NA 22.3 NA NA NA 2.6 NA 8.5  27.3 NA 
mvijay 82 AudubonPkLagoon3 43 10/24/2011 15:00 NA 25 NA NA NA 13.5 NA 9.0  17.4 NA 
mvijay 82 AudubonPkLagoon3 43 10/25/2011 13:29 NA 29.5 NA NA NA 6.1 NA 8.8  34.9 NA 
mvijay 82 AudubonPkLagoon3 43 11/1/2011 13:30 NA 22 NA NA NA 6.1 NA 8.4  37.8 NA 
mvijay 82 AudubonPkLagoon3 43 9/17/2012 17:20 NA 38.5 NA NA NA 2.2 NA 8.9  60 NA 
mvijay 82 AudubonPkLagoon3 43 9/20/2012 17:15 NA 29 NA NA NA 5.1 NA 8.0  57.8 NA 
mvijay 82 AudubonPkLagoon3 43 9/26/2012 13:15 NA 32.5 NA NA NA 9.0 NA 9.2  41.8 NA 
mvijay 82 AudubonPkLagoon3 43 9/28/2012 17:07 NA 28 NA NA NA 5.75 NA 8.3  10.41 NA 
mvijay 82 NA AudubonPkLagoon3 43 10/3/2012  NA 30 NA NA NA 12.8 NA 9.1  38.8 NA 
mvijay 82  AudubonPkLagoon3 43 10/3/2012 13:23 NA 30 NA NA NA 12.8 NA 9.1  38.8 NA 
mvijay 82 AudubonPkLagoon3 43 10/4/2012 17:06 NA 28 NA NA NA 8.1 NA 7.9  40.03 NA 
mvijay 82 NA AudubonPkLagoon3 43 10/10/2012 13:15 NA 28 NA NA NA 10.3 NA 8.5  45.8 NA 
mvijay 82 AudubonPkLagoon3 43 10/17/2012 15:39 NA 28 NA NA NA 13.2 NA 8.3  40.36 NA 
mvijay 82 NA AudubonPkLagoon3 43 10/17/2012 13:18 NA 26 NA NA NA 6.1 NA 8.2  40.4 NA 
mvijay 82 AudubonPkLagoon3 43 10/18/2012 17:07 NA 26 NA NA NA 9.8 NA 8.4  10.40 NA 
mvijay 82 NA AudubonPkLagoon3 43 10/24/2012 13:14 NA 26 NA NA NA 7.1 NA 8.1  39.8 NA 
mvijay 82 AudubonPkLagoon3 43 10/25/2012 17:23 NA 24.5 NA NA NA 10.0 NA 8.3  40.22 NA 
mvijay 82 NA AudubonPkLagoon3 43 10/31/2012 13:14 NA 22 NA NA NA 7.0 NA 8.1  15.2 NA 
mvijay 82 AudubonPkLagoon3 43 11/1/2012 17:14 NA 20 NA NA NA 12.6 NA 8.4  30.1 NA 
mvijay 82 AudubonPkLagoon3 43 9/10/2013 14:26 NA 31 NA NA NA 3.96 NA 8.1  48.9 NA 
mvijay 82 AudubonPkLagoon3 43 9/13/2013 14:40 NA 32 NA NA NA 5.6 NA 8.1  49.4 NA 
mvijay 82 AudubonPkLagoon3 43 9/17/2013 1413 NA 31 NA NA NA 6.64ppm NA 8.3  42.1 NA 
mvijay 82 AudubonPkLagoon3 43 9/20/2013 14:35 NA 31.8 NA NA NA 6.2 NA 8.3  47.8 NA 
mvijay 82 AudubonPkLagoon3 43 9/24/2013 1430 NA 31 NA NA NA 8.56ppm NA 8.1  19.4 NA 
mvijay 82 AudubonPkLagoon3 43 9/27/2013 14:50 NA 29.0 NA NA NA 5.5 NA 8.0  35.0 NA 
mvijay 82 AudubonPkLagoon3 43 10/1/2013 1402 NA 29 NA NA NA 4.92ppm NA 8.2  43.5 NA 
mvijay 82 AudubonPkLagoon3 43 10/4/2013 14:19 NA 28 NA NA NA 5.6 NA 7.9  21.4 NA 
mvijay 82 AudubonPkLagoon3 43 10/15/2013 1410 NA 29 NA NA NA 5.8 NA 8.3  40.2 NA 
mvijay 82 AudubonPkLagoon3 43 10/18/2013 14:52 NA 25 NA NA NA 3.8 NA 8.2  42 NA 
mvijay 82 AudubonPkLagoon3 43 10/22/2013 1403 NA 27 NA NA NA 4.3ppm NA 8.2  40.3 NA 
mvijay 82 AudubonPkLagoon3 43 10/25/2013 14:53 NA 23 NA NA NA 5.0 NA 8.2  51.5 NA 
mvijay 82 AudubonPkLagoon3 43 10/29/2013 1404 NA 26 NA NA NA 5.5ppm NA 7.9  43.6 NA 
mvijay 82 AudubonPkLagoon3 43 11/1/2013 15:13 NA 26 NA 6.5 NA NA NA 8.4  37.8 NA 
mvijay 82 AudubonPkLagoon3 43 9/12/2014 14:30 NA 33 NA NA NA 6.7 NA 8.08  43.3 NA 
mvijay 82 AudubonPkLagoon3 43 9/14/2014 12:15  29 NA  NA 4.4 NA 8.06  +60 NA 
mvijay 82 AudubonPkLagoon3 43 9/19/2014 14:30 NA 30 NA NA NA 7.6 NA 8.14  36.8 NA 
mvijay 82 AudubonPkLagoon3 43 9/21/2014 12:15 NA 29 NA NA NA 4.6 NA 8.13  47 NA 
mvijay 82 AudubonPkLagoon3 43 9/26/2014 14:30 NA 28 NA NA NA 7.8 NA 8.43  48.2 NA 
mvijay 82 AudubonPkLagoon3 43 9/28/2014 11:00 NA 27 NA NA NA 4.8 NA 8.16  52 NA 
mvijay 82 AudubonPkLagoon3 43 10/5/2014 12:15 NA 25 NA NA NA 6.8 NA 6.83  17 NA 
mvijay 82 AudubonPkLagoon3 43 10/12/2014 12 NA NA NA NA 6.6 6.6 6.93 6.93  18 NA 
mvijay 82 AudubonPkLagoon3 43 10/19/2014 12:15 NA 24 NA NA NA NA NA 6.74  29 NA 
mvijay 82 AudubonPkLagoon3 43 10/26/2014 12:15 NA 22 NA NA NA 6.8 NA 6.72  38 NA